sensor_id;sensor_type;location;lat;lon;timestamp;pressure;altitude;pressure_sealevel;temperature;humidity
17785;BME280;9016;53.582;10.062;2024-01-15T00:00:54;99201.50;;;3.98;86.46
17785;BME280;9016;53.582;10.062;2024-01-15T00:03:23;99193.41;;;4.01;85.95
17785;BME280;9016;53.582;10.062;2024-01-15T00:05:50;99191.22;;;3.93;85.55
17785;BME280;9016;53.582;10.062;2024-01-15T00:08:20;99183.84;;;4.00;85.82
17785;BME280;9016;53.582;10.062;2024-01-15T00:10:48;99176.69;;;4.02;85.51
17785;BME280;9016;53.582;10.062;2024-01-15T00:13:16;99178.25;;;3.90;85.60
17785;BME280;9016;53.582;10.062;2024-01-15T00:15:44;99167.81;;;3.89;85.65
17785;BME280;9016;53.582;10.062;2024-01-15T00:18:12;99182.41;;;3.94;85.05
17785;BME280;9016;53.582;10.062;2024-01-15T00:20:40;99178.06;;;3.93;86.27
17785;BME280;9016;53.582;10.062;2024-01-15T00:23:08;99180.22;;;3.87;86.31
17785;BME280;9016;53.582;10.062;2024-01-15T00:25:37;99170.88;;;3.81;86.74
17785;BME280;9016;53.582;10.062;2024-01-15T00:28:05;99160.22;;;3.53;87.99
17785;BME280;9016;53.582;10.062;2024-01-15T00:30:33;99165.06;;;3.61;89.13
17785;BME280;9016;53.582;10.062;2024-01-15T00:33:01;99146.28;;;3.67;89.12
17785;BME280;9016;53.582;10.062;2024-01-15T00:35:29;99153.63;;;3.76;89.07
17785;BME280;9016;53.582;10.062;2024-01-15T00:37:57;99146.13;;;3.84;88.43
17785;BME280;9016;53.582;10.062;2024-01-15T00:40:25;99142.38;;;3.88;88.03
17785;BME280;9016;53.582;10.062;2024-01-15T00:42:54;99122.06;;;3.90;87.72
17785;BME280;9016;53.582;10.062;2024-01-15T00:45:22;99126.31;;;3.92;87.43
17785;BME280;9016;53.582;10.062;2024-01-15T00:47:50;99115.31;;;4.00;86.93
17785;BME280;9016;53.582;10.062;2024-01-15T00:50:19;99117.31;;;4.11;86.41
17785;BME280;9016;53.582;10.062;2024-01-15T00:52:47;99115.44;;;4.13;86.50
17785;BME280;9016;53.582;10.062;2024-01-15T00:55:15;99120.31;;;4.04;86.46
17785;BME280;9016;53.582;10.062;2024-01-15T00:57:43;99110.97;;;3.99;87.55
17785;BME280;9016;53.582;10.062;2024-01-15T01:00:13;99111.16;;;3.96;87.22
17785;BME280;9016;53.582;10.062;2024-01-15T01:02:41;99112.09;;;3.95;87.15
17785;BME280;9016;53.582;10.062;2024-01-15T01:05:09;99105.34;;;3.91;86.57
17785;BME280;9016;53.582;10.062;2024-01-15T01:07:37;99102.53;;;3.78;87.57
17785;BME280;9016;53.582;10.062;2024-01-15T01:10:06;99098.78;;;3.68;87.35
17785;BME280;9016;53.582;10.062;2024-01-15T01:12:34;99085.91;;;3.78;87.79
17785;BME280;9016;53.582;10.062;2024-01-15T01:15:03;99081.22;;;3.83;87.83
17785;BME280;9016;53.582;10.062;2024-01-15T01:17:32;99089.59;;;3.89;86.62
17785;BME280;9016;53.582;10.062;2024-01-15T01:20:00;99070.03;;;3.79;87.26
17785;BME280;9016;53.582;10.062;2024-01-15T01:22:31;99068.97;;;3.82;87.32
17785;BME280;9016;53.582;10.062;2024-01-15T01:24:59;99056.56;;;3.84;86.96
17785;BME280;9016;53.582;10.062;2024-01-15T01:27:27;99061.75;;;3.85;86.60
17785;BME280;9016;53.582;10.062;2024-01-15T01:29:55;99056.69;;;3.96;86.54
17785;BME280;9016;53.582;10.062;2024-01-15T01:32:23;99053.66;;;4.02;86.65
17785;BME280;9016;53.582;10.062;2024-01-15T01:34:52;99044.44;;;4.10;85.72
17785;BME280;9016;53.582;10.062;2024-01-15T01:37:20;99049.34;;;4.01;85.27
17785;BME280;9016;53.582;10.062;2024-01-15T01:39:50;99063.84;;;4.09;86.96
17785;BME280;9016;53.582;10.062;2024-01-15T01:42:18;99054.63;;;4.01;86.76
17785;BME280;9016;53.582;10.062;2024-01-15T01:44:46;99065.53;;;3.95;86.97
17785;BME280;9016;53.582;10.062;2024-01-15T01:47:14;99068.81;;;3.99;86.67
17785;BME280;9016;53.582;10.062;2024-01-15T01:49:42;99069.69;;;4.14;87.28
17785;BME280;9016;53.582;10.062;2024-01-15T01:52:13;99078.06;;;4.34;86.85
17785;BME280;9016;53.582;10.062;2024-01-15T01:54:41;99065.94;;;4.46;86.40
17785;BME280;9016;53.582;10.062;2024-01-15T01:57:10;99053.59;;;4.46;85.60
17785;BME280;9016;53.582;10.062;2024-01-15T01:59:40;99052.19;;;4.41;85.33
17785;BME280;9016;53.582;10.062;2024-01-15T02:02:08;99051.34;;;4.40;84.48
17785;BME280;9016;53.582;10.062;2024-01-15T02:04:36;99053.50;;;4.20;85.47
17785;BME280;9016;53.582;10.062;2024-01-15T02:07:05;99058.56;;;4.23;86.48
17785;BME280;9016;53.582;10.062;2024-01-15T02:09:34;99048.78;;;4.25;86.39
17785;BME280;9016;53.582;10.062;2024-01-15T02:12:02;99050.59;;;4.24;86.24
17785;BME280;9016;53.582;10.062;2024-01-15T02:14:30;99053.97;;;4.26;86.42
17785;BME280;9016;53.582;10.062;2024-01-15T02:16:58;99050.66;;;4.09;86.42
17785;BME280;9016;53.582;10.062;2024-01-15T02:19:26;99054.81;;;4.13;86.79
17785;BME280;9016;53.582;10.062;2024-01-15T02:21:55;99059.72;;;4.19;86.86
17785;BME280;9016;53.582;10.062;2024-01-15T02:24:25;99056.13;;;4.06;86.63
17785;BME280;9016;53.582;10.062;2024-01-15T02:26:53;99063.91;;;3.93;87.18
17785;BME280;9016;53.582;10.062;2024-01-15T02:29:21;99051.50;;;3.95;88.27
17785;BME280;9016;53.582;10.062;2024-01-15T02:31:49;99051.59;;;3.79;87.50
17785;BME280;9016;53.582;10.062;2024-01-15T02:34:17;99050.81;;;3.63;88.13
17785;BME280;9016;53.582;10.062;2024-01-15T02:36:45;99042.41;;;3.71;88.66
17785;BME280;9016;53.582;10.062;2024-01-15T02:39:13;99056.97;;;3.92;89.65
17785;BME280;9016;53.582;10.062;2024-01-15T02:41:42;99059.78;;;3.89;88.94
17785;BME280;9016;53.582;10.062;2024-01-15T02:44:10;99060.75;;;4.02;89.01
17785;BME280;9016;53.582;10.062;2024-01-15T02:46:38;99043.03;;;4.04;88.20
17785;BME280;9016;53.582;10.062;2024-01-15T02:49:06;99046.06;;;3.98;89.12
17785;BME280;9016;53.582;10.062;2024-01-15T02:51:34;99031.19;;;3.97;89.27
17785;BME280;9016;53.582;10.062;2024-01-15T02:54:02;99026.09;;;3.94;89.43
17785;BME280;9016;53.582;10.062;2024-01-15T02:56:30;99028.53;;;3.97;89.39
17785;BME280;9016;53.582;10.062;2024-01-15T02:58:59;99033.91;;;4.10;89.74
17785;BME280;9016;53.582;10.062;2024-01-15T03:01:27;99024.22;;;4.10;89.02
17785;BME280;9016;53.582;10.062;2024-01-15T03:03:55;99017.53;;;4.04;89.35
17785;BME280;9016;53.582;10.062;2024-01-15T03:06:24;99023.75;;;4.18;89.49
17785;BME280;9016;53.582;10.062;2024-01-15T03:08:52;99029.69;;;4.21;88.45
17785;BME280;9016;53.582;10.062;2024-01-15T03:11:20;99028.38;;;4.14;88.38
17785;BME280;9016;53.582;10.062;2024-01-15T03:13:48;99037.94;;;4.15;88.37
17785;BME280;9016;53.582;10.062;2024-01-15T03:16:17;99030.06;;;4.01;88.60
17785;BME280;9016;53.582;10.062;2024-01-15T03:18:46;99051.69;;;4.06;89.78
17785;BME280;9016;53.582;10.062;2024-01-15T03:21:14;99044.94;;;4.16;88.86
17785;BME280;9016;53.582;10.062;2024-01-15T03:23:42;99047.00;;;4.11;88.31
17785;BME280;9016;53.582;10.062;2024-01-15T03:26:10;99051.88;;;4.17;88.57
17785;BME280;9016;53.582;10.062;2024-01-15T03:28:38;99047.19;;;4.22;88.63
17785;BME280;9016;53.582;10.062;2024-01-15T03:31:07;99048.31;;;4.32;88.64
17785;BME280;9016;53.582;10.062;2024-01-15T03:33:36;99059.81;;;4.31;88.25
17785;BME280;9016;53.582;10.062;2024-01-15T03:36:05;99059.22;;;4.26;87.38
17785;BME280;9016;53.582;10.062;2024-01-15T03:38:33;99061.50;;;4.18;88.09
17785;BME280;9016;53.582;10.062;2024-01-15T03:41:01;99057.81;;;4.21;87.86
17785;BME280;9016;53.582;10.062;2024-01-15T03:43:29;99047.78;;;4.13;88.06
17785;BME280;9016;53.582;10.062;2024-01-15T03:45:57;99053.97;;;4.12;88.33
17785;BME280;9016;53.582;10.062;2024-01-15T03:48:25;99061.13;;;4.24;88.46
17785;BME280;9016;53.582;10.062;2024-01-15T03:50:55;99059.22;;;4.26;87.75
17785;BME280;9016;53.582;10.062;2024-01-15T03:53:23;99070.16;;;4.20;87.56
17785;BME280;9016;53.582;10.062;2024-01-15T03:55:51;99074.31;;;4.24;87.14
17785;BME280;9016;53.582;10.062;2024-01-15T03:58:19;99077.97;;;4.22;86.60
17785;BME280;9016;53.582;10.062;2024-01-15T04:00:47;99075.03;;;4.26;87.83
17785;BME280;9016;53.582;10.062;2024-01-15T04:03:15;99073.00;;;4.31;86.82
17785;BME280;9016;53.582;10.062;2024-01-15T04:05:44;99077.59;;;4.42;86.24
17785;BME280;9016;53.582;10.062;2024-01-15T04:08:13;99074.88;;;4.43;85.96
17785;BME280;9016;53.582;10.062;2024-01-15T04:10:41;99074.41;;;4.37;85.62
17785;BME280;9016;53.582;10.062;2024-01-15T04:13:09;99069.31;;;4.34;84.92
17785;BME280;9016;53.582;10.062;2024-01-15T04:15:37;99077.69;;;4.26;84.52
17785;BME280;9016;53.582;10.062;2024-01-15T04:18:05;99066.22;;;4.27;85.29
17785;BME280;9016;53.582;10.062;2024-01-15T04:20:33;99073.81;;;4.32;84.42
17785;BME280;9016;53.582;10.062;2024-01-15T04:23:01;99073.56;;;4.36;83.69
17785;BME280;9016;53.582;10.062;2024-01-15T04:25:30;99072.78;;;4.34;83.47
17785;BME280;9016;53.582;10.062;2024-01-15T04:27:58;99074.88;;;4.29;83.32
17785;BME280;9016;53.582;10.062;2024-01-15T04:30:26;99074.31;;;4.24;83.38
17785;BME280;9016;53.582;10.062;2024-01-15T04:32:54;99074.78;;;4.31;83.46
17785;BME280;9016;53.582;10.062;2024-01-15T04:35:22;99082.22;;;4.24;82.64
17785;BME280;9016;53.582;10.062;2024-01-15T04:37:50;99086.84;;;4.35;82.90
17785;BME280;9016;53.582;10.062;2024-01-15T04:40:18;99085.25;;;4.46;82.51
17785;BME280;9016;53.582;10.062;2024-01-15T04:42:47;99080.88;;;4.45;81.61
17785;BME280;9016;53.582;10.062;2024-01-15T04:45:15;99070.91;;;4.36;81.24
17785;BME280;9016;53.582;10.062;2024-01-15T04:47:45;99071.66;;;4.38;81.88
17785;BME280;9016;53.582;10.062;2024-01-15T04:50:13;99070.91;;;4.50;81.76
17785;BME280;9016;53.582;10.062;2024-01-15T04:52:41;99080.88;;;4.59;81.61
17785;BME280;9016;53.582;10.062;2024-01-15T04:55:09;99081.63;;;4.61;81.29
17785;BME280;9016;53.582;10.062;2024-01-15T04:57:37;99078.81;;;4.64;81.46
17785;BME280;9016;53.582;10.062;2024-01-15T05:00:07;99079.28;;;4.57;80.24
17785;BME280;9016;53.582;10.062;2024-01-15T05:02:35;99075.53;;;4.61;80.91
17785;BME280;9016;53.582;10.062;2024-01-15T05:05:03;99085.31;;;4.59;81.19
17785;BME280;9016;53.582;10.062;2024-01-15T05:07:31;99082.03;;;4.55;80.70
17785;BME280;9016;53.582;10.062;2024-01-15T05:09:59;99081.72;;;4.60;81.07
17785;BME280;9016;53.582;10.062;2024-01-15T05:12:27;99072.78;;;4.62;81.33
17785;BME280;9016;53.582;10.062;2024-01-15T05:14:55;99081.63;;;4.61;81.41
17785;BME280;9016;53.582;10.062;2024-01-15T05:17:24;99079.09;;;4.60;81.39
17785;BME280;9016;53.582;10.062;2024-01-15T05:19:52;99081.06;;;4.56;80.62
17785;BME280;9016;53.582;10.062;2024-01-15T05:22:20;99076.16;;;4.50;81.60
17785;BME280;9016;53.582;10.062;2024-01-15T05:24:51;99078.91;;;4.49;81.45
17785;BME280;9016;53.582;10.062;2024-01-15T05:27:19;99078.91;;;4.49;81.44
17785;BME280;9016;53.582;10.062;2024-01-15T05:29:47;99073.66;;;4.35;81.62
17785;BME280;9016;53.582;10.062;2024-01-15T05:32:15;99076.56;;;4.30;82.42
17785;BME280;9016;53.582;10.062;2024-01-15T05:34:44;99078.28;;;4.31;81.94
17785;BME280;9016;53.582;10.062;2024-01-15T05:37:13;99090.78;;;4.28;82.77
17785;BME280;9016;53.582;10.062;2024-01-15T05:39:41;99090.13;;;4.38;82.91
17785;BME280;9016;53.582;10.062;2024-01-15T05:42:09;99091.63;;;4.42;82.43
17785;BME280;9016;53.582;10.062;2024-01-15T05:44:37;99089.75;;;4.58;82.70
17785;BME280;9016;53.582;10.062;2024-01-15T05:47:05;99091.41;;;4.59;81.86
17785;BME280;9016;53.582;10.062;2024-01-15T05:49:33;99086.16;;;4.59;82.44
17785;BME280;9016;53.582;10.062;2024-01-15T05:52:03;99085.97;;;4.62;82.34
17785;BME280;9016;53.582;10.062;2024-01-15T05:54:31;99093.97;;;4.47;82.13
17785;BME280;9016;53.582;10.062;2024-01-15T05:56:59;99094.94;;;4.46;82.98
17785;BME280;9016;53.582;10.062;2024-01-15T05:59:27;99088.41;;;4.37;82.86
17785;BME280;9016;53.582;10.062;2024-01-15T06:01:58;99089.34;;;4.50;83.25
17785;BME280;9016;53.582;10.062;2024-01-15T06:04:26;99093.59;;;4.67;83.76
17785;BME280;9016;53.582;10.062;2024-01-15T06:06:54;99096.53;;;4.62;82.84
17785;BME280;9016;53.582;10.062;2024-01-15T06:09:24;99107.25;;;4.59;83.07
17785;BME280;9016;53.582;10.062;2024-01-15T06:11:51;99113.47;;;4.58;82.21
17785;BME280;9016;53.582;10.062;2024-01-15T06:14:19;99110.47;;;4.64;82.55
17785;BME280;9016;53.582;10.062;2024-01-15T06:16:47;99102.06;;;4.58;82.03
17785;BME280;9016;53.582;10.062;2024-01-15T06:19:15;99097.47;;;4.47;82.81
17785;BME280;9016;53.582;10.062;2024-01-15T06:21:43;99095.78;;;4.46;82.64
17785;BME280;9016;53.582;10.062;2024-01-15T06:24:12;99092.19;;;4.47;84.09
17785;BME280;9016;53.582;10.062;2024-01-15T06:26:41;99095.78;;;4.46;83.69
17785;BME280;9016;53.582;10.062;2024-01-15T06:29:09;99091.72;;;4.55;83.23
17785;BME280;9016;53.582;10.062;2024-01-15T06:31:37;99090.00;;;4.54;83.26
17785;BME280;9016;53.582;10.062;2024-01-15T06:34:05;99095.97;;;4.57;83.25
17785;BME280;9016;53.582;10.062;2024-01-15T06:36:33;99093.88;;;4.48;83.40
17785;BME280;9016;53.582;10.062;2024-01-15T06:39:02;99104.16;;;4.53;83.58
17785;BME280;9016;53.582;10.062;2024-01-15T06:41:30;99097.09;;;4.53;82.97
17785;BME280;9016;53.582;10.062;2024-01-15T06:43:59;99092.59;;;4.55;83.22
17785;BME280;9016;53.582;10.062;2024-01-15T06:46:27;99101.41;;;4.54;83.71
17785;BME280;9016;53.582;10.062;2024-01-15T06:48:55;99092.94;;;4.63;83.30
17785;BME280;9016;53.582;10.062;2024-01-15T06:51:23;99098.03;;;4.66;82.70
17785;BME280;9016;53.582;10.062;2024-01-15T06:53:51;99102.81;;;4.60;82.32
17785;BME280;9016;53.582;10.062;2024-01-15T06:56:19;99100.09;;;4.61;81.86
17785;BME280;9016;53.582;10.062;2024-01-15T06:58:47;99102.56;;;4.64;82.15
17785;BME280;9016;53.582;10.062;2024-01-15T07:01:16;99108.38;;;4.69;82.22
17785;BME280;9016;53.582;10.062;2024-01-15T07:03:44;99113.84;;;4.66;81.57
17785;BME280;9016;53.582;10.062;2024-01-15T07:06:12;99106.13;;;4.63;82.58
17785;BME280;9016;53.582;10.062;2024-01-15T07:08:40;99113.38;;;4.60;81.86
17785;BME280;9016;53.582;10.062;2024-01-15T07:11:09;99114.63;;;4.68;82.29
17785;BME280;9016;53.582;10.062;2024-01-15T07:13:37;99106.50;;;4.71;81.25
17785;BME280;9016;53.582;10.062;2024-01-15T07:16:06;99112.16;;;4.79;80.43
17785;BME280;9016;53.582;10.062;2024-01-15T07:18:35;99117.69;;;4.89;80.89
17785;BME280;9016;53.582;10.062;2024-01-15T07:21:04;99116.84;;;4.88;80.19
17785;BME280;9016;53.582;10.062;2024-01-15T07:23:32;99122.13;;;4.88;79.48
17785;BME280;9016;53.582;10.062;2024-01-15T07:26:00;99120.25;;;4.90;79.34
17785;BME280;9016;53.582;10.062;2024-01-15T07:28:29;99125.69;;;4.87;78.98
17785;BME280;9016;53.582;10.062;2024-01-15T07:30:57;99126.56;;;4.88;78.85
17785;BME280;9016;53.582;10.062;2024-01-15T07:33:28;99134.28;;;4.77;78.56
17785;BME280;9016;53.582;10.062;2024-01-15T07:35:57;99138.31;;;4.96;78.53
17785;BME280;9016;53.582;10.062;2024-01-15T07:38:29;99143.84;;;5.06;76.93
17785;BME280;9016;53.582;10.062;2024-01-15T07:40:57;99138.59;;;5.06;76.86
17785;BME280;9016;53.582;10.062;2024-01-15T07:43:25;99143.41;;;4.99;76.13
17785;BME280;9016;53.582;10.062;2024-01-15T07:45:54;99142.34;;;5.02;74.91
17785;BME280;9016;53.582;10.062;2024-01-15T07:48:22;99139.91;;;4.99;75.27
17785;BME280;9016;53.582;10.062;2024-01-15T07:50:50;99144.16;;;5.01;74.64
17785;BME280;9016;53.582;10.062;2024-01-15T07:53:20;99147.72;;;5.15;74.80
17785;BME280;9016;53.582;10.062;2024-01-15T07:55:48;99146.28;;;5.23;73.86
17785;BME280;9016;53.582;10.062;2024-01-15T07:58:15;99154.47;;;5.19;74.14
17785;BME280;9016;53.582;10.062;2024-01-15T08:00:43;99145.81;;;5.17;73.06
17785;BME280;9016;53.582;10.062;2024-01-15T08:03:12;99146.56;;;5.19;73.86
17785;BME280;9016;53.582;10.062;2024-01-15T08:05:42;99144.03;;;5.17;73.92
17785;BME280;9016;53.582;10.062;2024-01-15T08:08:09;99158.53;;;5.24;73.54
17785;BME280;9016;53.582;10.062;2024-01-15T08:10:39;99155.13;;;5.22;72.79
17785;BME280;9016;53.582;10.062;2024-01-15T08:13:07;99155.81;;;5.26;73.09
17785;BME280;9016;53.582;10.062;2024-01-15T08:15:36;99143.16;;;5.31;73.72
17785;BME280;9016;53.582;10.062;2024-01-15T08:18:04;99147.84;;;5.40;72.67
17785;BME280;9016;53.582;10.062;2024-01-15T08:20:32;99154.22;;;5.50;72.98
17785;BME280;9016;53.582;10.062;2024-01-15T08:23:00;99154.03;;;5.53;72.94
17785;BME280;9016;53.582;10.062;2024-01-15T08:25:28;99147.56;;;5.30;73.03
17785;BME280;9016;53.582;10.062;2024-01-15T08:27:58;99153.50;;;5.07;74.35
17785;BME280;9016;53.582;10.062;2024-01-15T08:30:26;99160.19;;;5.13;74.42
17785;BME280;9016;53.582;10.062;2024-01-15T08:32:55;99156.63;;;5.26;75.09
17785;BME280;9016;53.582;10.062;2024-01-15T08:35:33;99168.84;;;5.15;73.76
17785;BME280;9016;53.582;10.062;2024-01-15T08:38:02;99164.00;;;5.21;74.43
17785;BME280;9016;53.582;10.062;2024-01-15T08:40:30;99170.41;;;5.31;74.38
17785;BME280;9016;53.582;10.062;2024-01-15T08:42:59;99176.72;;;5.29;74.76
17785;BME280;9016;53.582;10.062;2024-01-15T08:45:28;99179.84;;;5.21;75.44
17785;BME280;9016;53.582;10.062;2024-01-15T08:47:58;99189.25;;;5.39;75.87
17785;BME280;9016;53.582;10.062;2024-01-15T08:50:26;99190.41;;;5.21;75.85
17785;BME280;9016;53.582;10.062;2024-01-15T08:52:54;99180.06;;;5.04;76.92
17785;BME280;9016;53.582;10.062;2024-01-15T08:55:22;99183.00;;;4.99;76.43
17785;BME280;9016;53.582;10.062;2024-01-15T08:57:50;99190.53;;;4.91;77.28
17785;BME280;9016;53.582;10.062;2024-01-15T09:00:20;99192.03;;;4.95;78.58
17785;BME280;9016;53.582;10.062;2024-01-15T09:02:48;99201.94;;;4.64;78.42
17785;BME280;9016;53.582;10.062;2024-01-15T09:05:16;99189.75;;;4.61;79.75
17785;BME280;9016;53.582;10.062;2024-01-15T09:07:44;99184.50;;;4.61;80.07
17785;BME280;9016;53.582;10.062;2024-01-15T09:10:13;99183.66;;;4.61;80.87
17785;BME280;9016;53.582;10.062;2024-01-15T09:12:41;99187.72;;;4.66;80.77
17785;BME280;9016;53.582;10.062;2024-01-15T09:15:10;99201.72;;;4.67;81.07
17785;BME280;9016;53.582;10.062;2024-01-15T09:17:39;99195.63;;;4.80;81.13
17785;BME280;9016;53.582;10.062;2024-01-15T09:20:08;99196.94;;;4.87;80.08
17785;BME280;9016;53.582;10.062;2024-01-15T09:22:38;99218.81;;;4.89;80.65
17785;BME280;9016;53.582;10.062;2024-01-15T09:25:07;99207.78;;;4.83;80.46
17785;BME280;9016;53.582;10.062;2024-01-15T09:27:36;99223.22;;;4.89;81.23
17785;BME280;9016;53.582;10.062;2024-01-15T09:30:06;99220.88;;;4.98;81.18
17785;BME280;9016;53.582;10.062;2024-01-15T09:32:35;99223.72;;;4.95;80.61
17785;BME280;9016;53.582;10.062;2024-01-15T09:35:05;99223.31;;;4.73;81.74
17785;BME280;9016;53.582;10.062;2024-01-15T09:37:34;99220.03;;;4.84;83.56
17785;BME280;9016;53.582;10.062;2024-01-15T09:40:14;99225.22;;;4.85;82.16
17785;BME280;9016;53.582;10.062;2024-01-15T09:42:43;99233.38;;;4.67;81.81
17785;BME280;9016;53.582;10.062;2024-01-15T09:45:13;99233.69;;;4.62;82.37
17785;BME280;9016;53.582;10.062;2024-01-15T09:47:41;99243.50;;;4.31;82.60
17785;BME280;9016;53.582;10.062;2024-01-15T09:50:14;99239.78;;;4.19;83.98
17785;BME280;9016;53.582;10.062;2024-01-15T09:52:43;99233.84;;;4.16;84.74
17785;BME280;9016;53.582;10.062;2024-01-15T09:55:13;99248.34;;;4.23;84.57
17785;BME280;9016;53.582;10.062;2024-01-15T09:57:44;99250.38;;;4.33;85.26
17785;BME280;9016;53.582;10.062;2024-01-15T10:00:14;99262.63;;;4.34;85.56
17785;BME280;9016;53.582;10.062;2024-01-15T10:02:45;99273.56;;;4.42;85.41
17785;BME280;9016;53.582;10.062;2024-01-15T10:05:14;99262.75;;;4.47;84.55
17785;BME280;9016;53.582;10.062;2024-01-15T10:07:43;99272.81;;;4.40;83.81
17785;BME280;9016;53.582;10.062;2024-01-15T10:10:13;99275.53;;;4.39;83.90
17785;BME280;9016;53.582;10.062;2024-01-15T10:12:42;99271.69;;;4.44;83.94
17785;BME280;9016;53.582;10.062;2024-01-15T10:15:10;99275.00;;;4.48;82.94
17785;BME280;9016;53.582;10.062;2024-01-15T10:17:39;99271.84;;;4.41;83.21
17785;BME280;9016;53.582;10.062;2024-01-15T10:20:09;99275.09;;;4.46;83.76
17785;BME280;9016;53.582;10.062;2024-01-15T10:22:40;99271.59;;;4.46;84.10
17785;BME280;9016;53.582;10.062;2024-01-15T10:25:10;99269.72;;;4.48;83.52
17785;BME280;9016;53.582;10.062;2024-01-15T10:27:39;99272.38;;;4.62;83.24
17785;BME280;9016;53.582;10.062;2024-01-15T10:30:08;99272.78;;;4.70;83.60
17785;BME280;9016;53.582;10.062;2024-01-15T10:32:37;99279.69;;;4.86;83.54
17785;BME280;9016;53.582;10.062;2024-01-15T10:35:07;99285.63;;;4.90;82.20
17785;BME280;9016;53.582;10.062;2024-01-15T10:37:35;99286.84;;;4.98;82.73
17785;BME280;9016;53.582;10.062;2024-01-15T10:40:06;99290.25;;;5.00;81.66
17785;BME280;9016;53.582;10.062;2024-01-15T10:42:34;99294.88;;;5.11;82.29
17785;BME280;9016;53.582;10.062;2024-01-15T10:45:03;99296.50;;;4.99;82.22
17785;BME280;9016;53.582;10.062;2024-01-15T10:47:31;99291.22;;;4.99;82.87
17785;BME280;9016;53.582;10.062;2024-01-15T10:50:00;99300.34;;;5.08;81.33
17785;BME280;9016;53.582;10.062;2024-01-15T10:52:29;99300.34;;;5.08;81.28
17785;BME280;9016;53.582;10.062;2024-01-15T10:54:57;99310.25;;;5.04;81.90
17785;BME280;9016;53.582;10.062;2024-01-15T10:57:35;99307.50;;;5.06;82.22
17785;BME280;9016;53.582;10.062;2024-01-15T11:00:05;99317.88;;;5.09;82.36
17785;BME280;9016;53.582;10.062;2024-01-15T11:02:36;99318.38;;;5.01;81.67
17785;BME280;9016;53.582;10.062;2024-01-15T11:05:05;99310.25;;;5.04;82.91
17785;BME280;9016;53.582;10.062;2024-01-15T11:07:33;99321.06;;;5.70;81.65
17785;BME280;9016;53.582;10.062;2024-01-15T11:10:03;99304.78;;;5.64;79.34
17785;BME280;9016;53.582;10.062;2024-01-15T11:12:31;99315.25;;;5.51;79.81
17785;BME280;9016;53.582;10.062;2024-01-15T11:15:05;99311.66;;;5.52;80.26
17785;BME280;9016;53.582;10.062;2024-01-15T11:17:58;99312.97;;;5.59;80.34
17785;BME280;9016;53.582;10.062;2024-01-15T11:20:26;99311.00;;;5.49;80.71
17785;BME280;9016;53.582;10.062;2024-01-15T11:22:55;99319.59;;;5.38;80.69
17785;BME280;9016;53.582;10.062;2024-01-15T11:25:24;99313.19;;;5.28;80.80
17785;BME280;9016;53.582;10.062;2024-01-15T11:28:02;99316.88;;;5.26;81.53
17785;BME280;9016;53.582;10.062;2024-01-15T11:30:31;99313.84;;;5.32;81.42
17785;BME280;9016;53.582;10.062;2024-01-15T11:33:03;99313.94;;;5.30;81.78
17785;BME280;9016;53.582;10.062;2024-01-15T11:35:49;99312.59;;;5.37;80.95
17785;BME280;9016;53.582;10.062;2024-01-15T11:38:27;99321.97;;;5.29;81.72
17785;BME280;9016;53.582;10.062;2024-01-15T11:40:58;99318.56;;;5.27;81.23
17785;BME280;9016;53.582;10.062;2024-01-15T11:43:28;99332.41;;;5.16;80.62
17785;BME280;9016;53.582;10.062;2024-01-15T11:46:01;99323.34;;;5.06;80.91
17785;BME280;9016;53.582;10.062;2024-01-15T11:48:37;99327.88;;;5.04;82.88
17785;BME280;9016;53.582;10.062;2024-01-15T11:51:11;99330.25;;;5.09;82.05
17785;BME280;9016;53.582;10.062;2024-01-15T11:53:45;99327.31;;;5.13;82.68
17785;BME280;9016;53.582;10.062;2024-01-15T11:56:15;99329.56;;;5.33;82.25
17785;BME280;9016;53.582;10.062;2024-01-15T11:58:44;99329.50;;;5.35;82.06
17785;BME280;9016;53.582;10.062;2024-01-15T12:01:13;99336.56;;;5.20;81.44
17785;BME280;9016;53.582;10.062;2024-01-15T12:03:42;99330.06;;;5.26;81.65
17785;BME280;9016;53.582;10.062;2024-01-15T12:06:10;99334.13;;;5.31;82.04
17785;BME280;9016;53.582;10.062;2024-01-15T12:08:38;99331.56;;;5.30;81.47
17785;BME280;9016;53.582;10.062;2024-01-15T12:11:07;99342.97;;;5.30;80.82
17785;BME280;9016;53.582;10.062;2024-01-15T12:13:38;99343.09;;;5.29;80.81
17785;BME280;9016;53.582;10.062;2024-01-15T12:16:06;99342.59;;;5.22;82.16
17785;BME280;9016;53.582;10.062;2024-01-15T12:18:36;99334.97;;;5.32;82.04
17785;BME280;9016;53.582;10.062;2024-01-15T12:21:06;99337.81;;;5.29;80.32
17785;BME280;9016;53.582;10.062;2024-01-15T12:23:35;99348.25;;;5.30;81.21
17785;BME280;9016;53.582;10.062;2024-01-15T12:26:03;99357.78;;;5.19;80.16
17785;BME280;9016;53.582;10.062;2024-01-15T12:28:31;99354.75;;;5.25;81.31
17785;BME280;9016;53.582;10.062;2024-01-15T12:30:59;99358.38;;;5.24;81.07
17785;BME280;9016;53.582;10.062;2024-01-15T12:33:33;99359.19;;;5.24;81.67
17785;BME280;9016;53.582;10.062;2024-01-15T12:36:04;99369.59;;;5.27;81.06
17785;BME280;9016;53.582;10.062;2024-01-15T12:38:32;99364.94;;;5.17;80.15
17785;BME280;9016;53.582;10.062;2024-01-15T12:41:00;99372.69;;;5.20;80.94
17785;BME280;9016;53.582;10.062;2024-01-15T12:43:28;99375.59;;;5.15;80.37
17785;BME280;9016;53.582;10.062;2024-01-15T12:45:56;99383.63;;;5.28;80.40
17785;BME280;9016;53.582;10.062;2024-01-15T12:48:25;99387.47;;;5.22;78.82
17785;BME280;9016;53.582;10.062;2024-01-15T12:50:53;99385.78;;;5.35;79.95
17785;BME280;9016;53.582;10.062;2024-01-15T12:53:22;99389.19;;;5.37;79.26
17785;BME280;9016;53.582;10.062;2024-01-15T12:55:50;99388.72;;;5.31;79.12
17785;BME280;9016;53.582;10.062;2024-01-15T12:58:18;99380.41;;;5.23;78.10
17785;BME280;9016;53.582;10.062;2024-01-15T13:00:47;99387.22;;;5.27;78.27
17785;BME280;9016;53.582;10.062;2024-01-15T13:03:15;99387.69;;;5.33;79.19
17785;BME280;9016;53.582;10.062;2024-01-15T13:05:44;99391.94;;;5.22;78.67
17785;BME280;9016;53.582;10.062;2024-01-15T13:08:13;99385.22;;;5.16;79.25
17785;BME280;9016;53.582;10.062;2024-01-15T13:10:42;99393.63;;;5.23;78.92
17785;BME280;9016;53.582;10.062;2024-01-15T13:13:10;99387.41;;;5.24;78.56
17785;BME280;9016;53.582;10.062;2024-01-15T13:15:39;99386.56;;;5.23;78.72
17785;BME280;9016;53.582;10.062;2024-01-15T13:18:07;99389.84;;;5.27;78.76